Time;durP1;ratioP1;P1;durP2;ratioP2;P2;SDS_P1;SDS_P2;PMS_P1;PMS_P2;Temp;Humidity;BMP_temperature;BMP_pressure;BME280_temperature;BME280_humidity;BME280_pressure;Samples;Min_cycle;Max_cycle;Signal;HPM_P1;HPM_P2
2023/04/20 06:27:54;;;;;;;;;4.00;1.50;;;;;;;;5689907;22;52083;-70
2023/04/20 06:30:19;;;;;;;;;1.00;1.00;;;;;;;;6247766;22;50066;-72
2023/04/20 06:32:44;;;;;;;;;0.00;0.00;;;;;;;;6265032;22;49997;-73
2023/04/20 06:35:10;;;;;;;;;1.00;1.00;;;;;;;;6265748;22;49587;-75
2023/04/20 06:37:35;;;;;;;;;0.00;0.00;;;;;;;;6237466;22;51378;-75
2023/04/20 06:40:00;;;;;;;;;3.00;3.00;;;;;;;;6265814;22;50186;-73
2023/04/20 06:42:26;;;;;;;;;0.00;0.00;;;;;;;;6266367;22;49929;-76
2023/04/20 06:44:51;;;;;;;;;0.00;0.00;;;;;;;;6264958;22;49661;-79
2023/04/20 06:47:16;;;;;;;;;0.00;0.00;;;;;;;;6238096;22;51627;-79
2023/04/20 06:49:42;;;;;;;;;0.33;0.33;;;;;;;;6265759;22;49972;-79
2023/04/20 06:52:07;;;;;;;;;0.00;0.00;;;;;;;;6265683;22;50013;-73
2023/04/20 06:54:32;;;;;;;;;1.50;0.75;;;;;;;;6265602;22;49987;-72
2023/04/20 06:56:57;;;;;;;;;0.00;0.00;;;;;;;;6265715;22;50285;-74
2023/04/20 06:59:23;;;;;;;;;0.00;0.00;;;;;;;;6264509;22;50022;-74
2023/04/20 07:01:48;;;;;;;;;0.00;0.00;;;;;;;;6264615;22;50050;-74
2023/04/20 07:04:13;;;;;;;;;0.33;0.33;;;;;;;;6264232;22;49695;-74
2023/04/20 07:06:38;;;;;;;;;1.00;1.00;;;;;;;;6262996;22;50354;-74
2023/04/20 07:09:04;;;;;;;;;0.00;0.00;;;;;;;;6263713;22;49859;-74
2023/04/20 07:11:29;;;;;;;;;0.00;0.00;;;;;;;;6263611;22;49724;-74
2023/04/20 07:13:54;;;;;;;;;0.00;0.00;;;;;;;;6263782;22;49957;-74
2023/04/20 07:16:19;;;;;;;;;0.67;0.00;;;;;;;;6262726;22;50259;-74
2023/04/20 07:18:44;;;;;;;;;0.00;0.00;;;;;;;;6265563;22;49654;-74
2023/04/20 07:21:10;;;;;;;;;0.00;0.00;;;;;;;;6262536;22;50101;-73
2023/04/20 07:23:35;;;;;;;;;0.00;0.00;;;;;;;;6265457;22;50255;-77
2023/04/20 07:26:00;;;;;;;;;0.00;0.00;;;;;;;;6261719;22;50731;-75
2023/04/20 07:28:25;;;;;;;;;0.00;0.00;;;;;;;;6265680;22;49577;-75
2023/04/20 07:30:50;;;;;;;;;0.00;0.00;;;;;;;;6264821;22;49610;-84
2023/04/20 07:33:16;;;;;;;;;6.00;6.00;;;;;;;;6265308;22;49916;-83
2023/04/20 07:35:41;;;;;;;;;0.67;0.67;;;;;;;;6265795;22;49612;-82
2023/04/20 07:38:06;;;;;;;;;0.67;0.67;;;;;;;;6266104;22;49923;-83
2023/04/20 07:40:31;;;;;;;;;1.00;1.00;;;;;;;;6237967;22;49954;-83
2023/04/20 07:42:56;;;;;;;;;0.00;0.00;;;;;;;;6265502;22;50393;-82
2023/04/20 07:45:23;;;;;;;;;0.00;0.00;;;;;;;;6266039;22;50533;-85
2023/04/20 07:47:50;;;;;;;;;0.00;0.00;;;;;;;;6265693;22;49649;-82
2023/04/20 07:50:15;;;;;;;;;0.75;0.75;;;;;;;;6263132;22;49590;-84
2023/04/20 07:52:40;;;;;;;;;0.00;0.00;;;;;;;;6264644;22;49935;-84
2023/04/20 07:55:07;;;;;;;;;0.00;0.00;;;;;;;;6265466;22;50612;-83
2023/04/20 07:57:32;;;;;;;;;10.25;8.00;;;;;;;;6264839;22;49638;-79
2023/04/20 07:59:57;;;;;;;;;0.50;0.50;;;;;;;;6265309;22;49673;-81
2023/04/20 08:02:23;;;;;;;;;7.25;5.00;;;;;;;;6265481;22;49860;-80
2023/04/20 08:04:48;;;;;;;;;0.00;0.00;;;;;;;;6265711;22;50757;-81
2023/04/20 08:07:13;;;;;;;;;1.00;1.00;;;;;;;;6265934;22;49617;-82
2023/04/20 08:09:39;;;;;;;;;2.75;2.25;;;;;;;;6265120;22;49610;-82
2023/04/20 08:12:04;;;;;;;;;0.00;0.00;;;;;;;;6266018;22;50071;-83
2023/04/20 08:14:29;;;;;;;;;6.00;6.00;;;;;;;;6264598;22;50251;-83
2023/04/20 08:16:55;;;;;;;;;1.00;1.00;;;;;;;;6264569;22;49615;-82
2023/04/20 08:19:20;;;;;;;;;0.50;0.50;;;;;;;;6265727;22;49626;-80
2023/04/20 08:21:45;;;;;;;;;0.00;0.00;;;;;;;;6237667;22;49993;-81
2023/04/20 08:24:11;;;;;;;;;2.33;2.33;;;;;;;;6265197;22;49740;-75
2023/04/20 08:26:37;;;;;;;;;2.50;2.50;;;;;;;;6264911;22;49974;-73
2023/04/20 08:29:03;;;;;;;;;1.00;1.00;;;;;;;;6265101;22;49937;-76
2023/04/20 08:31:28;;;;;;;;;0.00;0.00;;;;;;;;6265835;22;49916;-74
2023/04/20 08:33:53;;;;;;;;;2.00;2.00;;;;;;;;6265008;22;50328;-74
2023/04/20 08:36:19;;;;;;;;;9.75;3.00;;;;;;;;6264955;22;49911;-75
2023/04/20 08:38:44;;;;;;;;;0.25;0.25;;;;;;;;6236953;22;49833;-73
2023/04/20 08:41:13;;;;;;;;;4.00;4.00;;;;;;;;6265951;22;49537;-77
2023/04/20 08:43:38;;;;;;;;;0.00;0.00;;;;;;;;6265070;22;50243;-77
2023/04/20 08:46:04;;;;;;;;;0.00;0.00;;;;;;;;6265414;22;49652;-76
2023/04/20 08:48:36;;;;;;;;;2.25;2.25;;;;;;;;6265236;22;49800;-76
2023/04/20 08:51:02;;;;;;;;;5.25;5.25;;;;;;;;6265486;22;49852;-77
2023/04/20 08:53:27;;;;;;;;;6.75;4.50;;;;;;;;6265147;22;49717;-74
2023/04/20 08:55:55;;;;;;;;;0.00;0.00;;;;;;;;6265604;22;50008;-75
2023/04/20 08:58:21;;;;;;;;;1.00;1.00;;;;;;;;6264530;22;49694;-75
2023/04/20 09:00:47;;;;;;;;;1.00;1.00;;;;;;;;6265169;22;49657;-77
2023/04/20 09:03:12;;;;;;;;;1.75;1.75;;;;;;;;6265620;22;50347;-77
2023/04/20 09:05:38;;;;;;;;;0.00;0.00;;;;;;;;6265216;22;49704;-78
2023/04/20 09:08:04;;;;;;;;;2.50;2.50;;;;;;;;6264065;22;49503;-77
2023/04/20 09:10:38;;;;;;;;;1.00;1.00;;;;;;;;6265722;22;49606;-77
2023/04/20 09:13:03;;;;;;;;;0.00;0.00;;;;;;;;6264951;22;49582;-78
2023/04/20 09:15:29;;;;;;;;;0.00;0.00;;;;;;;;6265400;22;49758;-77
2023/04/20 09:17:54;;;;;;;;;7.50;6.25;;;;;;;;6264588;22;50078;-77
2023/04/20 09:20:33;;;;;;;;;0.75;0.75;;;;;;;;6265222;22;49890;-77
2023/04/20 09:23:13;;;;;;;;;0.50;0.00;;;;;;;;6264854;22;50502;-77
2023/04/20 09:25:39;;;;;;;;;6.00;6.00;;;;;;;;6237321;22;49627;-76
2023/04/20 09:28:05;;;;;;;;;0.00;0.00;;;;;;;;6265486;22;49711;-77
2023/04/20 09:30:44;;;;;;;;;1.50;0.00;;;;;;;;6264662;22;50325;-76
2023/04/20 09:33:11;;;;;;;;;0.00;0.00;;;;;;;;6260050;22;51553;-75
2023/04/20 09:35:45;;;;;;;;;3.00;3.00;;;;;;;;6262542;22;49777;-76
2023/04/20 09:38:13;;;;;;;;;4.50;4.00;;;;;;;;6263721;22;49758;-76
2023/04/20 09:40:39;;;;;;;;;1.00;1.00;;;;;;;;6264577;22;49908;-76
2023/04/20 09:43:17;;;;;;;;;6.00;6.00;;;;;;;;6265244;22;50791;-80
2023/04/20 09:45:43;;;;;;;;;0.75;0.75;;;;;;;;6266077;22;49941;-82
2023/04/20 09:48:08;;;;;;;;;0.33;0.33;;;;;;;;6266306;22;49573;-79
2023/04/20 09:50:34;;;;;;;;;4.75;4.00;;;;;;;;6266056;22;49686;-77
2023/04/20 09:53:00;;;;;;;;;0.00;0.00;;;;;;;;6265111;22;49913;-81
2023/04/20 09:55:26;;;;;;;;;0.00;0.00;;;;;;;;6266249;22;49870;-84
2023/04/20 09:57:52;;;;;;;;;0.50;0.50;;;;;;;;6266784;22;49472;-86
2023/04/20 10:00:18;;;;;;;;;1.50;1.50;;;;;;;;6265684;22;49908;-80
2023/04/20 10:02:45;;;;;;;;;0.00;0.00;;;;;;;;6264672;22;49736;-79
2023/04/20 10:05:10;;;;;;;;;1.50;1.50;;;;;;;;6264449;22;49708;-75
2023/04/20 10:07:35;;;;;;;;;0.00;0.00;;;;;;;;6266001;22;49926;-78
2023/04/20 10:10:01;;;;;;;;;3.00;3.00;;;;;;;;6265855;22;49651;-77
2023/04/20 10:12:26;;;;;;;;;0.00;0.00;;;;;;;;6264201;22;51086;-76
2023/04/20 10:14:56;;;;;;;;;0.00;0.00;;;;;;;;6265739;22;49678;-77
2023/04/20 10:17:30;;;;;;;;;5.50;3.75;;;;;;;;6264752;22;49565;-77
2023/04/20 10:19:55;;;;;;;;;0.00;0.00;;;;;;;;6238048;22;49965;-77
2023/04/20 10:22:39;;;;;;;;;1.00;1.00;;;;;;;;6211540;22;51882;-76
2023/04/20 10:25:13;;;;;;;;;2.50;1.50;;;;;;;;6265881;22;49625;-79
2023/04/20 10:27:38;;;;;;;;;0.00;0.00;;;;;;;;6265753;22;49660;-79
2023/04/20 10:30:10;;;;;;;;;3.33;3.33;;;;;;;;6265098;22;49637;-79
2023/04/20 10:32:35;;;;;;;;;1.50;1.50;;;;;;;;6265804;22;50656;-79
2023/04/20 10:35:01;;;;;;;;;1.00;0.00;;;;;;;;6265361;22;49544;-76
2023/04/20 10:37:27;;;;;;;;;0.75;0.75;;;;;;;;6266282;22;49634;-78
2023/04/20 10:39:53;;;;;;;;;0.00;0.00;;;;;;;;6265360;22;49654;-78
2023/04/20 10:42:18;;;;;;;;;3.00;1.00;;;;;;;;6262676;22;49708;-80
2023/04/20 10:44:47;;;;;;;;;0.50;0.50;;;;;;;;6263311;22;49697;-80
2023/04/20 10:47:13;;;;;;;;;7.50;6.00;;;;;;;;6264784;22;49865;-77
2023/04/20 10:49:39;;;;;;;;;14.25;12.25;;;;;;;;6264311;22;49965;-79
2023/04/20 10:52:04;;;;;;;;;2.50;2.50;;;;;;;;6264208;22;51118;-80
2023/04/20 10:54:35;;;;;;;;;2.75;2.50;;;;;;;;6263821;22;49689;-76
2023/04/20 10:57:01;;;;;;;;;0.00;0.00;;;;;;;;6262882;22;49781;-77
2023/04/20 10:59:27;;;;;;;;;1.25;1.00;;;;;;;;6264507;22;49715;-77
2023/04/20 11:01:54;;;;;;;;;0.00;0.00;;;;;;;;6264505;22;50869;-77
2023/04/20 11:04:28;;;;;;;;;0.00;0.00;;;;;;;;6267531;22;49619;-91
2023/04/20 11:06:54;;;;;;;;;7.50;5.00;;;;;;;;6266643;22;49771;-90
2023/04/20 11:09:21;;;;;;;;;0.00;0.00;;;;;;;;6265828;22;49867;-86
2023/04/20 11:11:57;;;;;;;;;3.25;3.25;;;;;;;;6262924;22;50501;-84
2023/04/20 11:14:22;;;;;;;;;0.00;0.00;;;;;;;;6265095;22;50000;-88
2023/04/20 11:16:51;;;;;;;;;2.00;2.00;;;;;;;;6238482;22;50041;-85
2023/04/20 11:19:21;;;;;;;;;0.00;0.00;;;;;;;;6266670;22;49942;-85
2023/04/20 11:21:46;;;;;;;;;1.00;0.00;;;;;;;;6264279;22;50011;-88
2023/04/20 11:24:18;;;;;;;;;0.00;0.00;;;;;;;;6239075;22;49612;-84
2023/04/20 11:26:44;;;;;;;;;6.75;5.75;;;;;;;;6266596;22;49723;-87
2023/04/20 11:29:09;;;;;;;;;0.00;0.00;;;;;;;;6265662;22;49587;-88
2023/04/20 11:31:35;;;;;;;;;10.67;9.33;;;;;;;;6267695;22;49827;-89
2023/04/20 11:34:00;;;;;;;;;3.00;3.00;;;;;;;;6265338;22;49698;-77
2023/04/20 11:36:28;;;;;;;;;4.50;4.50;;;;;;;;6266000;22;50136;-77
2023/04/20 11:38:54;;;;;;;;;4.00;3.00;;;;;;;;6267694;22;49700;-78
2023/04/20 11:41:20;;;;;;;;;7.25;7.25;;;;;;;;6265889;22;50343;-76
2023/04/20 11:43:45;;;;;;;;;5.50;5.50;;;;;;;;6265799;22;49748;-73
2023/04/20 11:46:18;;;;;;;;;5.50;5.50;;;;;;;;6265019;22;49770;-80
2023/04/20 11:48:43;;;;;;;;;5.00;5.00;;;;;;;;6264681;22;49876;-75
2023/04/20 11:51:09;;;;;;;;;6.00;4.00;;;;;;;;6263760;22;50023;-73
2023/04/20 11:53:34;;;;;;;;;6.75;6.75;;;;;;;;6264139;22;49709;-76
2023/04/20 11:55:59;;;;;;;;;3.00;3.00;;;;;;;;6259131;22;49996;-83
2023/04/20 11:58:25;;;;;;;;;5.33;5.33;;;;;;;;6255782;22;49943;-83
2023/04/20 12:00:50;;;;;;;;;2.67;1.67;;;;;;;;6261667;22;50514;-81
2023/04/20 12:03:15;;;;;;;;;1.00;1.00;;;;;;;;6265346;22;50009;-75
2023/04/20 12:05:41;;;;;;;;;6.33;5.67;;;;;;;;6263872;22;49957;-77
2023/04/20 12:08:07;;;;;;;;;1.75;1.75;;;;;;;;6264760;22;49979;-73
2023/04/20 12:10:32;;;;;;;;;3.00;3.00;;;;;;;;6264971;22;50833;-74
2023/04/20 12:12:58;;;;;;;;;0.00;0.00;;;;;;;;6263401;22;49664;-73
2023/04/20 12:15:24;;;;;;;;;0.00;0.00;;;;;;;;6263068;22;49560;-73
2023/04/20 12:17:49;;;;;;;;;24.67;12.67;;;;;;;;6264411;22;49711;-73
2023/04/20 12:20:14;;;;;;;;;3.00;3.00;;;;;;;;6263425;22;51515;-77
2023/04/20 12:22:39;;;;;;;;;1.00;1.00;;;;;;;;6269413;22;49655;-89
2023/04/20 12:25:05;;;;;;;;;1.00;0.00;;;;;;;;6268845;22;49559;-75
2023/04/20 12:27:30;;;;;;;;;1.00;1.00;;;;;;;;6263747;22;49894;-74
2023/04/20 12:29:55;;;;;;;;;3.00;1.00;;;;;;;;6235004;22;50980;-75
2023/04/20 12:32:21;;;;;;;;;2.75;0.75;;;;;;;;6236394;22;49587;-73
2023/04/20 12:34:46;;;;;;;;;10.25;6.75;;;;;;;;6263358;22;49992;-73
2023/04/20 12:37:11;;;;;;;;;0.25;0.25;;;;;;;;6263572;22;49922;-75
2023/04/20 12:39:36;;;;;;;;;0.00;0.00;;;;;;;;6262659;22;50699;-75
2023/04/20 12:42:02;;;;;;;;;1.67;1.67;;;;;;;;6235880;22;49682;-75
2023/04/20 12:44:27;;;;;;;;;4.00;1.75;;;;;;;;6263427;22;49642;-73
2023/04/20 12:46:52;;;;;;;;;0.00;0.00;;;;;;;;6264119;22;49701;-74
2023/04/20 12:49:18;;;;;;;;;1.00;1.00;;;;;;;;6262479;22;49839;-73
2023/04/20 12:51:43;;;;;;;;;10.67;8.67;;;;;;;;6264056;22;50046;-74
2023/04/20 12:54:08;;;;;;;;;6.00;4.00;;;;;;;;6263766;22;49597;-73
2023/04/20 12:56:33;;;;;;;;;0.25;0.25;;;;;;;;6264272;22;49875;-73
2023/04/20 12:58:58;;;;;;;;;4.00;4.00;;;;;;;;6262924;22;51580;-74
2023/04/20 13:01:24;;;;;;;;;0.00;0.00;;;;;;;;6263499;22;49693;-74
2023/04/20 13:03:50;;;;;;;;;2.00;2.00;;;;;;;;6263855;22;49964;-73
2023/04/20 13:06:15;;;;;;;;;1.00;0.00;;;;;;;;6263824;22;50338;-73
2023/04/20 13:08:40;;;;;;;;;3.00;3.00;;;;;;;;6263419;22;49884;-73
2023/04/20 13:11:05;;;;;;;;;11.67;5.67;;;;;;;;6263264;22;49965;-72
2023/04/20 13:13:30;;;;;;;;;1.50;1.00;;;;;;;;6263102;22;49638;-73
2023/04/20 13:15:56;;;;;;;;;0.00;0.00;;;;;;;;6263654;22;49941;-71
2023/04/20 13:18:23;;;;;;;;;2.00;2.00;;;;;;;;6262414;22;49641;-73
2023/04/20 13:20:48;;;;;;;;;12.50;8.25;;;;;;;;6263163;22;49685;-73
2023/04/20 13:23:13;;;;;;;;;0.00;0.00;;;;;;;;6263885;22;49875;-73
2023/04/20 13:25:39;;;;;;;;;1.50;0.25;;;;;;;;6263387;22;49765;-74
2023/04/20 13:28:04;;;;;;;;;3.25;1.00;;;;;;;;6263122;22;50270;-74
2023/04/20 13:30:30;;;;;;;;;3.00;1.00;;;;;;;;6262424;22;50046;-74
2023/04/20 13:32:55;;;;;;;;;2.75;2.25;;;;;;;;6263035;22;49852;-74
2023/04/20 13:35:20;;;;;;;;;4.00;1.00;;;;;;;;6264050;22;49930;-74
2023/04/20 13:37:45;;;;;;;;;0.25;0.25;;;;;;;;6263002;22;50372;-73
2023/04/20 13:40:11;;;;;;;;;0.00;0.00;;;;;;;;6263839;22;49749;-73
2023/04/20 13:42:36;;;;;;;;;12.00;7.50;;;;;;;;6263420;22;49589;-73
2023/04/20 13:45:02;;;;;;;;;0.00;0.00;;;;;;;;6263806;22;49857;-74
2023/04/20 13:47:27;;;;;;;;;7.25;5.75;;;;;;;;6263074;22;50486;-74
2023/04/20 13:49:53;;;;;;;;;0.00;0.00;;;;;;;;6262952;22;50021;-73
2023/04/20 13:52:18;;;;;;;;;0.00;0.00;;;;;;;;6263920;22;49938;-73
2023/04/20 13:54:43;;;;;;;;;0.00;0.00;;;;;;;;6264055;22;49547;-74
2023/04/20 13:57:08;;;;;;;;;7.00;1.00;;;;;;;;6263970;22;50635;-73
2023/04/20 13:59:33;;;;;;;;;1.00;1.00;;;;;;;;6263706;22;49664;-73
2023/04/20 14:01:59;;;;;;;;;0.00;0.00;;;;;;;;6264358;22;49729;-73
2023/04/20 14:04:24;;;;;;;;;0.00;0.00;;;;;;;;6263936;22;49937;-73
2023/04/20 14:06:50;;;;;;;;;3.75;3.75;;;;;;;;6263663;22;50762;-74
2023/04/20 14:09:15;;;;;;;;;3.00;3.00;;;;;;;;6236426;22;49710;-74
2023/04/20 14:11:42;;;;;;;;;0.00;0.00;;;;;;;;6263946;22;49981;-74
2023/04/20 14:14:07;;;;;;;;;0.00;0.00;;;;;;;;6264590;22;49654;-75
2023/04/20 14:16:40;;;;;;;;;6.00;4.00;;;;;;;;6264550;22;49768;-74
2023/04/20 14:19:06;;;;;;;;;5.00;2.00;;;;;;;;6264152;22;49777;-74
2023/04/20 14:21:31;;;;;;;;;0.75;0.75;;;;;;;;6235837;22;50024;-74
2023/04/20 14:23:56;;;;;;;;;5.25;5.25;;;;;;;;6234471;22;49801;-73
2023/04/20 14:26:22;;;;;;;;;6.00;6.00;;;;;;;;6233955;22;50511;-73
2023/04/20 14:28:48;;;;;;;;;1.00;1.00;;;;;;;;6234986;22;49571;-74
2023/04/20 14:31:13;;;;;;;;;5.75;5.25;;;;;;;;6262030;22;50007;-74
2023/04/20 14:33:40;;;;;;;;;3.00;3.00;;;;;;;;6265148;22;49623;-74
2023/04/20 14:36:05;;;;;;;;;0.00;0.00;;;;;;;;6264917;22;50410;-74
2023/04/20 14:38:30;;;;;;;;;3.25;3.00;;;;;;;;6262779;22;49610;-75
2023/04/20 14:40:55;;;;;;;;;0.67;0.67;;;;;;;;6261484;22;50133;-74
2023/04/20 14:43:21;;;;;;;;;4.25;4.25;;;;;;;;6263088;22;50286;-74
2023/04/20 14:45:47;;;;;;;;;3.00;0.25;;;;;;;;6264290;22;49666;-73
2023/04/20 14:48:12;;;;;;;;;0.00;0.00;;;;;;;;6266197;22;49701;-74
2023/04/20 14:50:37;;;;;;;;;0.00;0.00;;;;;;;;6238548;22;49757;-74
2023/04/20 14:53:03;;;;;;;;;0.00;0.00;;;;;;;;6264524;22;49642;-75
2023/04/20 14:55:28;;;;;;;;;5.67;5.33;;;;;;;;6263924;22;50228;-75
2023/04/20 14:57:54;;;;;;;;;0.00;0.00;;;;;;;;6265045;22;50065;-75
2023/04/20 15:00:22;;;;;;;;;0.00;0.00;;;;;;;;6265991;22;49637;-75
2023/04/20 15:02:47;;;;;;;;;0.00;0.00;;;;;;;;6264276;22;49872;-74
2023/04/20 15:05:12;;;;;;;;;3.25;2.00;;;;;;;;6266208;22;50743;-73
2023/04/20 15:07:38;;;;;;;;;1.00;1.00;;;;;;;;6265377;22;49976;-74
2023/04/20 15:10:03;;;;;;;;;0.00;0.00;;;;;;;;6265297;22;49666;-74
2023/04/20 15:12:29;;;;;;;;;3.00;2.50;;;;;;;;6264958;22;49946;-75
2023/04/20 15:14:54;;;;;;;;;0.67;0.67;;;;;;;;6263895;22;50412;-72
2023/04/20 15:17:19;;;;;;;;;0.00;0.00;;;;;;;;6263364;22;49970;-75
2023/04/20 15:19:44;;;;;;;;;1.00;0.00;;;;;;;;6264751;22;49946;-72
2023/04/20 15:22:13;;;;;;;;;1.00;1.00;;;;;;;;6264049;22;49891;-77
2023/04/20 15:24:39;;;;;;;;;3.50;3.50;;;;;;;;6263565;22;49689;-77
2023/04/20 15:27:05;;;;;;;;;3.00;3.00;;;;;;;;6264495;22;49667;-77
2023/04/20 15:29:30;;;;;;;;;0.00;0.00;;;;;;;;6264082;22;50075;-77
2023/04/20 15:31:55;;;;;;;;;3.00;3.00;;;;;;;;6237516;22;50395;-79
2023/04/20 15:34:20;;;;;;;;;0.00;0.00;;;;;;;;6263701;22;51232;-81
2023/04/20 15:36:45;;;;;;;;;0.00;0.00;;;;;;;;6236714;22;49741;-81
2023/04/20 15:39:11;;;;;;;;;0.00;0.00;;;;;;;;6237731;22;49930;-79
2023/04/20 15:41:37;;;;;;;;;1.00;1.00;;;;;;;;6263599;22;49832;-86
2023/04/20 15:44:02;;;;;;;;;1.75;1.50;;;;;;;;6264428;22;50471;-85
2023/04/20 15:46:27;;;;;;;;;1.75;1.75;;;;;;;;6265442;22;49528;-80
2023/04/20 15:48:52;;;;;;;;;1.00;0.00;;;;;;;;6265657;22;49600;-80
2023/04/20 15:51:18;;;;;;;;;0.00;0.00;;;;;;;;6266425;22;50278;-79
2023/04/20 15:53:49;;;;;;;;;0.00;0.00;;;;;;;;6265569;22;49577;-81
2023/04/20 15:56:14;;;;;;;;;0.00;0.00;;;;;;;;6266000;22;49984;-79
2023/04/20 15:58:40;;;;;;;;;0.00;0.00;;;;;;;;6265812;22;49670;-79
2023/04/20 16:01:05;;;;;;;;;0.00;0.00;;;;;;;;6265684;22;50395;-81
2023/04/20 16:03:31;;;;;;;;;0.00;0.00;;;;;;;;6265989;22;50182;-74
2023/04/20 16:05:56;;;;;;;;;0.00;0.00;;;;;;;;6264342;22;49617;-78
2023/04/20 16:08:21;;;;;;;;;0.00;0.00;;;;;;;;6264033;22;50314;-77
2023/04/20 16:10:46;;;;;;;;;0.33;0.00;;;;;;;;6264476;22;49579;-77
2023/04/20 16:13:11;;;;;;;;;0.00;0.00;;;;;;;;6264010;22;50150;-76
2023/04/20 16:15:37;;;;;;;;;0.00;0.00;;;;;;;;6264195;22;49802;-75
2023/04/20 16:18:04;;;;;;;;;0.00;0.00;;;;;;;;6263958;22;49589;-75
2023/04/20 16:20:29;;;;;;;;;0.00;0.00;;;;;;;;6264554;22;49917;-76
2023/04/20 16:22:54;;;;;;;;;0.00;0.00;;;;;;;;6236012;22;51332;-76
2023/04/20 16:25:22;;;;;;;;;0.00;0.00;;;;;;;;6263305;22;50013;-76
2023/04/20 16:27:50;;;;;;;;;0.00;0.00;;;;;;;;6263558;22;49641;-77
2023/04/20 16:30:16;;;;;;;;;0.00;0.00;;;;;;;;6262920;22;49636;-77
2023/04/20 16:32:41;;;;;;;;;1.50;0.50;;;;;;;;6263900;22;50520;-77
2023/04/20 16:35:06;;;;;;;;;0.00;0.00;;;;;;;;6235825;22;49610;-76
2023/04/20 16:37:34;;;;;;;;;0.00;0.00;;;;;;;;6263959;22;49632;-77
2023/04/20 16:39:59;;;;;;;;;0.25;0.25;;;;;;;;6263909;22;50061;-77
2023/04/20 16:42:25;;;;;;;;;0.00;0.00;;;;;;;;6263792;22;49726;-76
2023/04/20 16:44:50;;;;;;;;;6.00;6.00;;;;;;;;6263310;22;49705;-75
2023/04/20 16:47:15;;;;;;;;;0.00;0.00;;;;;;;;6262994;22;49957;-76
2023/04/20 16:49:40;;;;;;;;;0.00;0.00;;;;;;;;6263124;22;49964;-76
2023/04/20 16:52:05;;;;;;;;;0.00;0.00;;;;;;;;6261940;22;49743;-78
2023/04/20 16:54:30;;;;;;;;;0.25;0.25;;;;;;;;6264060;22;49746;-80
2023/04/20 16:56:56;;;;;;;;;0.33;0.00;;;;;;;;6264817;22;49709;-78
2023/04/20 16:59:21;;;;;;;;;5.00;1.00;;;;;;;;6263809;22;49957;-77
2023/04/20 17:01:47;;;;;;;;;0.00;0.00;;;;;;;;6263389;22;50542;-77
2023/04/20 17:04:12;;;;;;;;;0.00;0.00;;;;;;;;6265288;22;49736;-78
2023/04/20 17:06:38;;;;;;;;;1.00;1.00;;;;;;;;6264998;22;49807;-77
2023/04/20 17:09:05;;;;;;;;;0.00;0.00;;;;;;;;6264998;22;49916;-77
2023/04/20 17:11:34;;;;;;;;;0.00;0.00;;;;;;;;6263994;22;50508;-74
2023/04/20 17:13:59;;;;;;;;;0.00;0.00;;;;;;;;6264893;22;49906;-68
2023/04/20 17:16:25;;;;;;;;;0.25;0.25;;;;;;;;6265651;22;49730;-69
2023/04/20 17:18:51;;;;;;;;;0.25;0.25;;;;;;;;6265354;22;49539;-70
2023/04/20 17:21:16;;;;;;;;;0.00;0.00;;;;;;;;6264254;22;50303;-70
2023/04/20 17:23:41;;;;;;;;;1.00;1.00;;;;;;;;6265279;22;49939;-68
2023/04/20 17:26:07;;;;;;;;;6.67;5.33;;;;;;;;6263547;22;49971;-70
2023/04/20 17:28:32;;;;;;;;;2.50;2.50;;;;;;;;6236021;22;50000;-68
2023/04/20 17:30:57;;;;;;;;;1.00;1.00;;;;;;;;6262529;22;49892;-74
2023/04/20 17:33:22;;;;;;;;;0.75;0.75;;;;;;;;6263586;22;50065;-71
2023/04/20 17:35:47;;;;;;;;;2.00;1.00;;;;;;;;6262812;22;49717;-71
2023/04/20 17:38:13;;;;;;;;;0.67;0.67;;;;;;;;6235669;22;49984;-70
2023/04/20 17:40:38;;;;;;;;;3.33;0.33;;;;;;;;6264526;22;50150;-70
2023/04/20 17:43:03;;;;;;;;;0.33;0.33;;;;;;;;6262766;22;49992;-71
2023/04/20 17:45:28;;;;;;;;;0.00;0.00;;;;;;;;6264287;22;49629;-70
2023/04/20 17:47:53;;;;;;;;;1.67;1.00;;;;;;;;6264886;22;49626;-71
2023/04/20 17:50:19;;;;;;;;;3.50;0.00;;;;;;;;6263716;22;50669;-72
2023/04/20 17:52:44;;;;;;;;;0.00;0.00;;;;;;;;6263282;22;50043;-74
2023/04/20 17:55:09;;;;;;;;;0.00;0.00;;;;;;;;6262720;22;50137;-74
2023/04/20 17:57:35;;;;;;;;;10.67;10.00;;;;;;;;6263351;22;49550;-74
2023/04/20 18:00:00;;;;;;;;;2.50;0.00;;;;;;;;6263542;22;51103;-75
2023/04/20 18:02:25;;;;;;;;;1.00;1.00;;;;;;;;6264438;22;49934;-74
2023/04/20 18:04:51;;;;;;;;;0.00;0.00;;;;;;;;6265139;22;49789;-74
2023/04/20 18:07:17;;;;;;;;;0.75;0.75;;;;;;;;6265829;22;49560;-75
2023/04/20 18:09:42;;;;;;;;;0.00;0.00;;;;;;;;6265134;22;50015;-70
2023/04/20 18:12:09;;;;;;;;;1.75;1.75;;;;;;;;6265985;22;50045;-72
2023/04/20 18:14:35;;;;;;;;;1.50;1.50;;;;;;;;6265700;22;49728;-73
2023/04/20 18:17:00;;;;;;;;;1.00;1.00;;;;;;;;6266222;22;49920;-73
2023/04/20 18:19:25;;;;;;;;;10.67;9.67;;;;;;;;6265859;22;50463;-74
2023/04/20 18:21:50;;;;;;;;;0.00;0.00;;;;;;;;6265653;22;49754;-73
2023/04/20 18:24:16;;;;;;;;;1.00;1.00;;;;;;;;6266563;22;49836;-77
2023/04/20 18:26:41;;;;;;;;;0.00;0.00;;;;;;;;6266562;22;49948;-72
2023/04/20 18:29:06;;;;;;;;;16.67;12.33;;;;;;;;6265264;22;50942;-77
2023/04/20 18:31:31;;;;;;;;;5.50;5.50;;;;;;;;6237635;22;49658;-75
2023/04/20 18:33:56;;;;;;;;;0.00;0.00;;;;;;;;6266095;22;49646;-74
2023/04/20 18:36:22;;;;;;;;;1.33;1.33;;;;;;;;6266566;22;49794;-73
2023/04/20 18:38:49;;;;;;;;;3.33;3.33;;;;;;;;6265935;22;50371;-74
2023/04/20 18:41:15;;;;;;;;;0.25;0.25;;;;;;;;6265967;22;50037;-74
2023/04/20 18:43:43;;;;;;;;;0.00;0.00;;;;;;;;6266470;22;49804;-74
2023/04/20 18:46:08;;;;;;;;;0.00;0.00;;;;;;;;6266038;22;49496;-78
2023/04/20 18:48:33;;;;;;;;;6.33;6.33;;;;;;;;6265806;22;49761;-76
2023/04/20 18:51:00;;;;;;;;;2.33;2.33;;;;;;;;6265926;22;49800;-74
2023/04/20 18:53:25;;;;;;;;;0.00;0.00;;;;;;;;6265479;22;49630;-73
2023/04/20 18:55:51;;;;;;;;;1.00;1.00;;;;;;;;6265933;22;49645;-77
2023/04/20 18:58:16;;;;;;;;;5.50;3.75;;;;;;;;6265718;22;50779;-76
2023/04/20 19:00:42;;;;;;;;;0.67;0.67;;;;;;;;6265973;22;49843;-77
2023/04/20 19:03:07;;;;;;;;;1.00;0.00;;;;;;;;6265666;22;49998;-77
2023/04/20 19:05:32;;;;;;;;;0.00;0.00;;;;;;;;6237472;22;49894;-78
2023/04/20 19:07:57;;;;;;;;;5.50;2.50;;;;;;;;6265540;22;50222;-80
2023/04/20 19:10:24;;;;;;;;;1.00;1.00;;;;;;;;6266176;22;49745;-83
2023/04/20 19:12:49;;;;;;;;;0.00;0.00;;;;;;;;6265794;22;49725;-78
2023/04/20 19:15:14;;;;;;;;;0.00;0.00;;;;;;;;6265618;22;50015;-81
2023/04/20 19:17:41;;;;;;;;;0.00;0.00;;;;;;;;6265281;22;49717;-79
2023/04/20 19:20:07;;;;;;;;;0.00;0.00;;;;;;;;6265616;22;49652;-77
2023/04/20 19:22:32;;;;;;;;;0.00;0.00;;;;;;;;6237584;22;49677;-77
2023/04/20 19:24:57;;;;;;;;;0.00;0.00;;;;;;;;6265970;22;49734;-77
2023/04/20 19:27:22;;;;;;;;;0.00;0.00;;;;;;;;6265244;22;49661;-79
2023/04/20 19:29:47;;;;;;;;;6.00;4.00;;;;;;;;6264098;22;49772;-80
2023/04/20 19:32:13;;;;;;;;;3.67;1.67;;;;;;;;6264078;22;49851;-77
2023/04/20 19:34:38;;;;;;;;;0.00;0.00;;;;;;;;6264356;22;49948;-76
2023/04/20 19:37:03;;;;;;;;;4.00;4.00;;;;;;;;6263596;22;49863;-79
2023/04/20 19:39:28;;;;;;;;;1.00;0.00;;;;;;;;6264752;22;49752;-80
2023/04/20 19:41:54;;;;;;;;;0.75;0.00;;;;;;;;6265462;22;49625;-77
2023/04/20 19:44:19;;;;;;;;;1.00;1.00;;;;;;;;6265010;22;49918;-76
2023/04/20 19:46:44;;;;;;;;;0.75;0.00;;;;;;;;6264084;22;49853;-76
2023/04/20 19:49:09;;;;;;;;;0.00;0.00;;;;;;;;6265783;22;49984;-76
2023/04/20 19:51:35;;;;;;;;;0.00;0.00;;;;;;;;6265015;22;49742;-77
2023/04/20 19:54:02;;;;;;;;;3.25;1.00;;;;;;;;6265592;22;49867;-78
2023/04/20 19:56:27;;;;;;;;;0.00;0.00;;;;;;;;6265673;22;49949;-78
2023/04/20 19:58:52;;;;;;;;;0.00;0.00;;;;;;;;6265871;22;49528;-78
2023/04/20 20:01:18;;;;;;;;;0.00;0.00;;;;;;;;6265795;22;49559;-78
2023/04/20 20:03:43;;;;;;;;;0.00;0.00;;;;;;;;6266249;22;49920;-77
2023/04/20 20:06:08;;;;;;;;;0.00;0.00;;;;;;;;6265554;22;50568;-78
2023/04/20 20:08:34;;;;;;;;;2.00;2.00;;;;;;;;6265992;22;49585;-77
2023/04/20 20:10:59;;;;;;;;;0.00;0.00;;;;;;;;6265866;22;49693;-78
2023/04/20 20:13:25;;;;;;;;;0.00;0.00;;;;;;;;6238719;22;49599;-77
2023/04/20 20:15:50;;;;;;;;;0.00;0.00;;;;;;;;6265344;22;49646;-77
2023/04/20 20:18:16;;;;;;;;;0.00;0.00;;;;;;;;6265881;22;49697;-76
2023/04/20 20:20:41;;;;;;;;;0.00;0.00;;;;;;;;6265764;22;49870;-76
2023/04/20 20:23:06;;;;;;;;;0.00;0.00;;;;;;;;6265597;22;49956;-76
2023/04/20 20:25:32;;;;;;;;;0.00;0.00;;;;;;;;6265576;22;49628;-76
2023/04/20 20:27:57;;;;;;;;;0.00;0.00;;;;;;;;6265401;22;49609;-75
2023/04/20 20:30:22;;;;;;;;;0.00;0.00;;;;;;;;6237513;22;50103;-77
2023/04/20 20:32:47;;;;;;;;;0.00;0.00;;;;;;;;6266090;22;49984;-76
2023/04/20 20:35:12;;;;;;;;;0.00;0.00;;;;;;;;6265100;22;49878;-77
2023/04/20 20:37:39;;;;;;;;;0.00;0.00;;;;;;;;6265658;22;49705;-76
2023/04/20 20:40:13;;;;;;;;;0.00;0.00;;;;;;;;6265913;22;49550;-76
2023/04/20 20:42:41;;;;;;;;;0.00;0.00;;;;;;;;6265870;22;50128;-77
2023/04/20 20:45:09;;;;;;;;;0.00;0.00;;;;;;;;6236861;22;51229;-77
2023/04/20 20:47:34;;;;;;;;;0.50;0.50;;;;;;;;6263618;22;49571;-77
2023/04/20 20:50:00;;;;;;;;;0.00;0.00;;;;;;;;6264905;22;49913;-78
2023/04/20 20:52:25;;;;;;;;;0.00;0.00;;;;;;;;6265219;22;49590;-77
2023/04/20 20:54:51;;;;;;;;;0.00;0.00;;;;;;;;6265265;22;49891;-78
2023/04/20 20:57:16;;;;;;;;;1.00;1.00;;;;;;;;6265270;22;49772;-76
2023/04/20 20:59:41;;;;;;;;;0.00;0.00;;;;;;;;6265443;22;49653;-77
2023/04/20 21:02:06;;;;;;;;;0.00;0.00;;;;;;;;6265747;22;50005;-76